createdAt,value
2019-05-19T00:03:57.653Z,14.20
2019-05-19T00:08:09.970Z,14.00
2019-05-19T00:12:21.264Z,13.80
2019-05-19T00:16:33.800Z,13.70
2019-05-19T00:20:46.525Z,13.60
2019-05-19T00:24:57.445Z,13.60
2019-05-19T00:29:08.106Z,13.60
2019-05-19T00:33:20.136Z,13.60
2019-05-19T00:37:31.590Z,13.60
2019-05-19T00:41:42.470Z,13.50
2019-05-19T00:45:52.991Z,13.50
2019-05-19T00:50:05.541Z,13.40
2019-05-19T00:54:15.969Z,13.40
2019-05-19T00:58:27.946Z,13.40
2019-05-19T01:02:39.276Z,13.40
2019-05-19T01:06:49.579Z,13.30
2019-05-19T01:10:59.877Z,13.30
2019-05-19T01:15:11.521Z,13.40
2019-05-19T01:19:24.192Z,13.40
2019-05-19T01:23:35.128Z,13.40
2019-05-19T01:27:46.998Z,13.30
2019-05-19T01:31:59.827Z,13.20
2019-05-19T01:36:13.826Z,13.20
2019-05-19T01:40:24.973Z,13.10
2019-05-19T01:44:36.409Z,13.10
2019-05-19T01:48:47.588Z,13.10
2019-05-19T01:52:58.756Z,13.10
2019-05-19T01:57:10.053Z,13.10
2019-05-19T02:01:22.579Z,13.20
2019-05-19T02:05:33.981Z,13.20
2019-05-19T02:09:45.236Z,13.20
2019-05-19T02:13:58.230Z,13.10
2019-05-19T02:18:10.519Z,13.00
2019-05-19T02:22:21.922Z,12.80
2019-05-19T02:26:33.910Z,12.70
2019-05-19T02:30:46.941Z,12.60
2019-05-19T02:34:59.533Z,12.60
2019-05-19T02:39:11.397Z,12.60
2019-05-19T02:43:23.831Z,12.60
2019-05-19T02:47:37.643Z,12.60
2019-05-19T02:51:50.714Z,12.60
2019-05-19T02:56:03.856Z,12.60
2019-05-19T03:00:16.895Z,12.50
2019-05-19T03:04:30.107Z,12.40
2019-05-19T03:08:41.246Z,12.30
2019-05-19T03:12:53.294Z,12.20
2019-05-19T03:17:04.801Z,12.10
2019-05-19T03:21:16.276Z,12.00
2019-05-19T03:25:27.826Z,12.00
2019-05-19T03:29:40.676Z,12.00
2019-05-19T03:33:53.882Z,12.00
2019-05-19T03:38:05.211Z,11.90
2019-05-19T03:42:18.119Z,11.90
2019-05-19T03:46:29.395Z,11.80
2019-05-19T03:50:41.065Z,11.80
2019-05-19T03:54:54.212Z,12.00
2019-05-19T03:59:05.599Z,12.30
2019-05-19T04:03:17.208Z,12.50
2019-05-19T04:07:28.923Z,12.70
2019-05-19T04:11:40.225Z,12.90
2019-05-19T04:15:51.872Z,13.20
2019-05-19T04:20:03.294Z,13.50
2019-05-19T04:24:16.656Z,13.90
2019-05-19T04:28:27.870Z,14.30
2019-05-19T04:32:39.186Z,14.50
2019-05-19T04:36:50.707Z,14.80
2019-05-19T04:41:02.698Z,15.10
2019-05-19T04:45:14.382Z,15.20
2019-05-19T04:49:25.927Z,15.50
2019-05-19T04:53:39.685Z,15.80
2019-05-19T04:57:53.007Z,15.60
2019-05-19T05:02:04.695Z,15.60
2019-05-19T05:06:16.513Z,15.80
2019-05-19T05:10:29.048Z,15.90
2019-05-19T05:14:41.181Z,16.10
2019-05-19T05:18:52.887Z,16.30
2019-05-19T05:23:04.818Z,16.40
2019-05-19T05:27:16.410Z,16.60
2019-05-19T05:31:27.787Z,16.80
2019-05-19T05:35:39.204Z,16.80
2019-05-19T05:39:50.347Z,16.90
2019-05-19T05:44:01.740Z,16.90
2019-05-19T05:48:12.984Z,17.10
2019-05-19T05:52:37.593Z,17.30
2019-05-19T05:56:37.192Z,17.60
2019-05-19T06:00:50.167Z,18.00
2019-05-19T06:05:00.562Z,18.40
2019-05-19T06:09:10.953Z,18.60
2019-05-19T06:13:21.279Z,19.10
2019-05-19T06:17:31.639Z,19.40
2019-05-19T06:21:41.966Z,19.80
2019-05-19T06:25:52.467Z,19.80
2019-05-19T06:30:03.046Z,19.80
2019-05-19T06:34:13.597Z,19.70
2019-05-19T06:38:24.076Z,19.70
2019-05-19T06:42:34.477Z,19.80
2019-05-19T06:46:45.147Z,20.10
2019-05-19T06:50:55.488Z,20.70
2019-05-19T06:55:07.224Z,20.90
2019-05-19T06:59:20.537Z,21.20
2019-05-19T07:03:30.932Z,21.30
2019-05-19T07:07:41.884Z,21.00
2019-05-19T07:11:52.196Z,20.50
2019-05-19T07:16:02.641Z,20.70
2019-05-19T07:20:13.014Z,20.90
2019-05-19T07:24:23.351Z,21.10
2019-05-19T07:28:33.646Z,21.30
2019-05-19T07:32:44.011Z,21.00
2019-05-19T07:36:54.324Z,21.10
2019-05-19T07:41:04.645Z,21.40
2019-05-19T07:45:15.192Z,21.70
2019-05-19T07:49:25.551Z,21.40
2019-05-19T07:53:43.156Z,21.40
2019-05-19T07:57:49.378Z,21.50
2019-05-19T08:02:01.462Z,21.40
2019-05-19T08:06:11.898Z,21.60
2019-05-19T08:10:22.249Z,21.40
2019-05-19T08:14:32.592Z,21.30
2019-05-19T08:18:42.926Z,21.40
2019-05-19T08:22:53.355Z,22.00
2019-05-19T08:27:03.657Z,22.70
2019-05-19T08:31:14.079Z,22.50
2019-05-19T08:35:24.385Z,22.20
2019-05-19T08:39:35.723Z,22.10
2019-05-19T08:43:46.052Z,22.50
2019-05-19T08:47:57.026Z,22.50
2019-05-19T08:52:07.364Z,22.30
2019-05-19T08:56:17.682Z,22.60
2019-05-19T09:00:27.905Z,22.50
2019-05-19T09:04:38.165Z,22.40
2019-05-19T09:08:48.661Z,22.60
2019-05-19T09:12:59.105Z,22.60
2019-05-19T09:17:10.274Z,23.20
2019-05-19T09:21:20.637Z,23.70
2019-05-19T09:25:31.084Z,23.80
2019-05-19T09:29:41.516Z,24.00
2019-05-19T09:33:51.860Z,23.90
2019-05-19T09:38:02.297Z,23.60
2019-05-19T09:42:12.735Z,23.30
2019-05-19T09:46:27.706Z,23.40
2019-05-19T09:50:38.011Z,23.80
2019-05-19T09:54:48.353Z,24.30
2019-05-19T09:58:59.960Z,24.40
2019-05-19T10:03:10.204Z,24.50
2019-05-19T10:07:20.560Z,24.00
2019-05-19T10:11:48.932Z,24.20
2019-05-19T10:15:59.420Z,24.30
2019-05-19T10:20:12.764Z,24.50
2019-05-19T10:24:24.659Z,24.50
2019-05-19T10:28:35.870Z,24.70
2019-05-19T10:32:46.213Z,24.80
2019-05-19T10:36:57.239Z,24.60
2019-05-19T10:41:08.377Z,24.60
2019-05-19T10:45:18.966Z,24.50
2019-05-19T10:49:29.416Z,24.20
2019-05-19T10:53:39.844Z,24.60
2019-05-19T10:57:51.833Z,24.40
2019-05-19T11:02:02.321Z,24.30
2019-05-19T11:06:13.305Z,24.80
2019-05-19T11:10:23.470Z,25.30
2019-05-19T11:14:33.906Z,25.50
2019-05-19T11:18:44.676Z,25.20
2019-05-19T11:22:54.988Z,24.60
2019-05-19T11:27:05.341Z,24.60
2019-05-19T11:31:15.692Z,24.60
2019-05-19T11:35:28.035Z,24.70
2019-05-19T11:39:38.773Z,24.80
2019-05-19T11:43:49.111Z,24.90
2019-05-19T11:48:00.296Z,24.90
2019-05-19T11:52:10.562Z,24.90
2019-05-19T11:56:22.898Z,24.30
2019-05-19T12:00:33.529Z,24.30
2019-05-19T12:04:46.754Z,24.40
2019-05-19T12:08:57.102Z,24.50
2019-05-19T12:13:07.494Z,24.50
2019-05-19T12:17:20.337Z,24.30
2019-05-19T12:21:30.684Z,24.70
2019-05-19T12:25:42.620Z,24.80
2019-05-19T12:29:52.960Z,24.40
2019-05-19T12:34:04.243Z,24.40
2019-05-19T12:38:17.911Z,24.30
2019-05-19T12:42:28.288Z,24.00
2019-05-19T12:46:38.645Z,23.60
2019-05-19T12:50:48.947Z,23.60
2019-05-19T12:54:59.287Z,23.70
2019-05-19T12:59:17.248Z,23.90
2019-05-19T13:03:22.473Z,24.10
2019-05-19T13:07:34.404Z,24.30
2019-05-19T13:11:46.339Z,24.80
2019-05-19T13:15:56.565Z,24.60
2019-05-19T13:20:07.122Z,24.70
2019-05-19T13:24:17.526Z,24.80
2019-05-19T13:28:28.458Z,24.80
2019-05-19T13:32:38.863Z,24.60
2019-05-19T13:36:49.292Z,24.60
2019-05-19T13:41:00.884Z,24.80
2019-05-19T13:45:13.118Z,24.80
2019-05-19T13:49:23.485Z,24.80
2019-05-19T13:53:33.936Z,24.80
2019-05-19T13:57:45.212Z,24.60
2019-05-19T14:01:56.820Z,24.50
2019-05-19T14:06:07.139Z,24.50
2019-05-19T14:10:17.699Z,24.80
2019-05-19T14:14:27.925Z,24.60
2019-05-19T14:18:38.314Z,24.50
2019-05-19T14:22:48.610Z,24.60
2019-05-19T14:26:58.840Z,24.60
2019-05-19T14:31:10.429Z,24.60
2019-05-19T14:35:21.332Z,24.70
2019-05-19T14:39:31.782Z,24.60
2019-05-19T14:43:42.174Z,24.70
2019-05-19T14:47:53.099Z,24.80
2019-05-19T14:52:04.874Z,24.70
2019-05-19T14:56:15.549Z,24.60
2019-05-19T15:00:26.516Z,24.70
2019-05-19T15:04:36.852Z,24.80
2019-05-19T15:08:47.291Z,24.70
2019-05-19T15:12:58.902Z,24.60
2019-05-19T15:17:10.784Z,24.60
2019-05-19T15:21:21.625Z,24.50
2019-05-19T15:25:35.027Z,24.70
2019-05-19T15:29:45.289Z,24.60
2019-05-19T15:33:55.744Z,24.60
2019-05-19T15:38:06.438Z,24.70
2019-05-19T15:42:16.794Z,24.70
2019-05-19T15:46:28.270Z,24.60
2019-05-19T15:50:38.506Z,24.60
2019-05-19T15:54:49.366Z,24.60
2019-05-19T15:58:59.808Z,24.50
2019-05-19T16:03:12.343Z,24.40
2019-05-19T16:07:23.016Z,24.50
2019-05-19T16:11:34.096Z,24.60
2019-05-19T16:15:45.757Z,24.70
2019-05-19T16:19:56.110Z,24.60
2019-05-19T16:24:06.488Z,24.50
2019-05-19T16:28:29.637Z,24.40
2019-05-19T16:32:28.698Z,24.40
2019-05-19T16:36:39.034Z,24.40
2019-05-19T16:40:50.718Z,24.30
2019-05-19T16:45:01.039Z,24.20
2019-05-19T16:49:12.304Z,24.30
2019-05-19T16:53:23.198Z,24.30
2019-05-19T16:57:33.652Z,24.30
2019-05-19T17:01:43.993Z,24.20
2019-05-19T17:05:56.448Z,24.20
2019-05-19T17:10:08.871Z,24.20
2019-05-19T17:14:19.210Z,24.20
2019-05-19T17:18:31.990Z,24.10
2019-05-19T17:22:42.886Z,24.00
2019-05-19T17:26:53.234Z,23.90
2019-05-19T17:31:03.542Z,23.90
2019-05-19T17:35:15.484Z,23.70
2019-05-19T17:39:26.018Z,23.70
2019-05-19T17:43:37.130Z,23.60
2019-05-19T17:47:48.604Z,23.50
2019-05-19T17:51:59.469Z,23.40
2019-05-19T17:56:10.813Z,23.30
2019-05-19T18:00:29.822Z,23.30
2019-05-19T18:04:40.129Z,23.20
2019-05-19T18:08:50.532Z,23.20
2019-05-19T18:13:00.840Z,23.00
2019-05-19T18:17:11.178Z,23.00
2019-05-19T18:21:21.502Z,22.90
2019-05-19T18:25:32.592Z,22.80
2019-05-19T18:29:43.483Z,22.80
2019-05-19T18:33:55.326Z,22.70
2019-05-19T18:38:05.662Z,22.70
2019-05-19T18:42:15.988Z,22.60
2019-05-19T18:46:26.241Z,22.60
2019-05-19T18:50:36.548Z,22.50
2019-05-19T18:54:46.895Z,22.30
2019-05-19T18:58:57.581Z,22.20
2019-05-19T19:03:08.113Z,22.00
2019-05-19T19:07:18.346Z,21.80
2019-05-19T19:11:28.809Z,21.70
2019-05-19T19:15:39.110Z,21.60
2019-05-19T19:19:49.539Z,21.50
2019-05-19T19:24:00.002Z,21.40
2019-05-19T19:28:10.349Z,21.30
2019-05-19T19:32:20.669Z,21.20
2019-05-19T19:36:30.932Z,21.10
2019-05-19T19:40:41.824Z,21.00
2019-05-19T19:44:52.969Z,20.90
2019-05-19T19:49:03.209Z,20.90
2019-05-19T19:53:13.502Z,20.80
2019-05-19T19:57:24.895Z,20.60
2019-05-19T20:01:35.937Z,20.50
2019-05-19T20:05:47.889Z,20.40
2019-05-19T20:09:58.781Z,20.30
2019-05-19T20:14:10.292Z,20.20
2019-05-19T20:18:20.650Z,20.00
2019-05-19T20:22:30.957Z,19.80
2019-05-19T20:26:41.322Z,19.70
2019-05-19T20:30:51.732Z,19.70
2019-05-19T20:35:02.140Z,19.60
2019-05-19T20:39:15.969Z,19.60
2019-05-19T20:43:26.322Z,19.60
2019-05-19T20:47:38.722Z,19.50
2019-05-19T20:51:49.056Z,19.40
2019-05-19T20:55:59.551Z,19.30
2019-05-19T21:00:10.400Z,19.10
2019-05-19T21:04:22.142Z,18.80
2019-05-19T21:08:33.177Z,18.70
2019-05-19T21:12:43.524Z,18.60
2019-05-19T21:16:54.030Z,18.50
2019-05-19T21:21:04.379Z,18.40
2019-05-19T21:25:16.417Z,18.30
2019-05-19T21:29:26.663Z,18.20
2019-05-19T21:33:36.957Z,18.20
2019-05-19T21:37:48.457Z,18.20
2019-05-19T21:41:58.693Z,18.20
2019-05-19T21:46:10.358Z,18.10
2019-05-19T21:50:20.647Z,18.00
2019-05-19T21:54:30.893Z,18.00
2019-05-19T21:58:42.701Z,17.90
2019-05-19T22:02:53.027Z,17.90
2019-05-19T22:07:07.563Z,17.80
2019-05-19T22:11:18.141Z,17.80
2019-05-19T22:15:29.366Z,17.80
2019-05-19T22:19:39.667Z,17.70
2019-05-19T22:23:50.104Z,17.60
2019-05-19T22:28:01.926Z,17.50
2019-05-19T22:32:12.897Z,17.40
2019-05-19T22:36:24.403Z,17.40
2019-05-19T22:40:35.527Z,17.50
2019-05-19T22:44:46.473Z,17.50
2019-05-19T22:48:56.707Z,17.40
2019-05-19T22:53:06.945Z,17.40
2019-05-19T22:57:18.111Z,17.40
2019-05-19T23:01:29.386Z,17.30
2019-05-19T23:05:39.871Z,17.30
2019-05-19T23:09:50.208Z,17.20
2019-05-19T23:14:00.887Z,17.20
2019-05-19T23:18:11.214Z,17.00
2019-05-19T23:22:21.570Z,16.90
2019-05-19T23:26:31.897Z,16.90
2019-05-19T23:30:42.299Z,16.80
2019-05-19T23:34:52.646Z,16.70
2019-05-19T23:39:04.607Z,16.60
2019-05-19T23:43:14.974Z,16.50
2019-05-19T23:47:25.276Z,16.50
2019-05-19T23:51:35.894Z,16.50
2019-05-19T23:55:46.204Z,16.50
2019-05-19T23:59:57.012Z,16.50
